sensor_id;sensor_type;location;lat;lon;timestamp;temperature;humidity
15481;DHT22;7842;50.904;6.670;2023-06-22T00:01:10;23.20;99.90
15481;DHT22;7842;50.904;6.670;2023-06-22T00:03:36;23.20;99.90
15481;DHT22;7842;50.904;6.670;2023-06-22T00:06:01;23.30;99.90
15481;DHT22;7842;50.904;6.670;2023-06-22T00:08:27;23.40;99.90
15481;DHT22;7842;50.904;6.670;2023-06-22T00:10:52;23.20;99.90
15481;DHT22;7842;50.904;6.670;2023-06-22T00:13:18;23.20;99.90
15481;DHT22;7842;50.904;6.670;2023-06-22T00:15:44;23.20;99.90
15481;DHT22;7842;50.904;6.670;2023-06-22T00:18:10;23.10;99.90
15481;DHT22;7842;50.904;6.670;2023-06-22T00:20:36;23.10;99.90
15481;DHT22;7842;50.904;6.670;2023-06-22T00:23:03;23.10;99.90
15481;DHT22;7842;50.904;6.670;2023-06-22T00:25:39;23.10;99.90
15481;DHT22;7842;50.904;6.670;2023-06-22T00:28:07;23.10;99.90
15481;DHT22;7842;50.904;6.670;2023-06-22T00:30:34;23.20;99.90
15481;DHT22;7842;50.904;6.670;2023-06-22T00:32:59;23.10;99.90
15481;DHT22;7842;50.904;6.670;2023-06-22T00:35:26;23.20;99.90
15481;DHT22;7842;50.904;6.670;2023-06-22T00:37:58;23.30;99.90
15481;DHT22;7842;50.904;6.670;2023-06-22T00:40:28;23.10;99.90
15481;DHT22;7842;50.904;6.670;2023-06-22T00:42:54;23.20;99.90
15481;DHT22;7842;50.904;6.670;2023-06-22T00:45:21;23.20;99.90
15481;DHT22;7842;50.904;6.670;2023-06-22T00:47:52;23.10;99.90
15481;DHT22;7842;50.904;6.670;2023-06-22T00:50:22;23.00;99.90
15481;DHT22;7842;50.904;6.670;2023-06-22T00:52:52;23.00;99.90
15481;DHT22;7842;50.904;6.670;2023-06-22T00:55:20;22.90;99.90
15481;DHT22;7842;50.904;6.670;2023-06-22T00:57:49;22.90;99.90
15481;DHT22;7842;50.904;6.670;2023-06-22T01:00:15;22.90;99.90
15481;DHT22;7842;50.904;6.670;2023-06-22T01:02:46;22.90;99.90
15481;DHT22;7842;50.904;6.670;2023-06-22T01:05:13;22.80;99.90
15481;DHT22;7842;50.904;6.670;2023-06-22T01:10:30;22.70;99.90
15481;DHT22;7842;50.904;6.670;2023-06-22T01:13:04;22.70;99.90
15481;DHT22;7842;50.904;6.670;2023-06-22T01:15:37;22.50;99.90
15481;DHT22;7842;50.904;6.670;2023-06-22T01:18:05;22.60;99.90
15481;DHT22;7842;50.904;6.670;2023-06-22T01:20:34;22.70;99.90
15481;DHT22;7842;50.904;6.670;2023-06-22T01:25:42;22.90;99.90
15481;DHT22;7842;50.904;6.670;2023-06-22T01:30:41;22.80;99.90
15481;DHT22;7842;50.904;6.670;2023-06-22T01:33:10;22.70;99.90
15481;DHT22;7842;50.904;6.670;2023-06-22T01:35:37;22.80;99.90
15481;DHT22;7842;50.904;6.670;2023-06-22T01:38:04;22.80;99.90
15481;DHT22;7842;50.904;6.670;2023-06-22T01:40:32;22.90;99.90
15481;DHT22;7842;50.904;6.670;2023-06-22T01:43:00;22.60;99.90
15481;DHT22;7842;50.904;6.670;2023-06-22T01:45:27;22.60;99.90
15481;DHT22;7842;50.904;6.670;2023-06-22T01:47:53;22.50;99.90
15481;DHT22;7842;50.904;6.670;2023-06-22T01:50:20;22.50;99.90
15481;DHT22;7842;50.904;6.670;2023-06-22T01:52:46;22.50;99.90
15481;DHT22;7842;50.904;6.670;2023-06-22T01:55:11;22.50;99.90
15481;DHT22;7842;50.904;6.670;2023-06-22T01:57:37;22.50;99.90
15481;DHT22;7842;50.904;6.670;2023-06-22T02:02:58;22.60;99.90
15481;DHT22;7842;50.904;6.670;2023-06-22T02:05:28;22.50;99.90
15481;DHT22;7842;50.904;6.670;2023-06-22T02:08:02;22.70;99.90
15481;DHT22;7842;50.904;6.670;2023-06-22T02:10:31;22.60;99.90
15481;DHT22;7842;50.904;6.670;2023-06-22T02:12:59;22.60;99.90
15481;DHT22;7842;50.904;6.670;2023-06-22T02:15:25;22.50;99.90
15481;DHT22;7842;50.904;6.670;2023-06-22T02:17:51;22.50;99.90
15481;DHT22;7842;50.904;6.670;2023-06-22T02:20:17;22.50;99.90
15481;DHT22;7842;50.904;6.670;2023-06-22T02:22:43;22.50;99.90
15481;DHT22;7842;50.904;6.670;2023-06-22T02:25:09;22.50;99.90
15481;DHT22;7842;50.904;6.670;2023-06-22T02:27:34;22.70;99.90
15481;DHT22;7842;50.904;6.670;2023-06-22T02:30:00;22.50;99.90
15481;DHT22;7842;50.904;6.670;2023-06-22T02:32:26;22.40;99.90
15481;DHT22;7842;50.904;6.670;2023-06-22T02:34:52;22.60;99.90
15481;DHT22;7842;50.904;6.670;2023-06-22T02:37:18;22.20;99.90
15481;DHT22;7842;50.904;6.670;2023-06-22T02:39:43;22.30;99.90
15481;DHT22;7842;50.904;6.670;2023-06-22T02:42:09;22.40;99.90
15481;DHT22;7842;50.904;6.670;2023-06-22T02:44:37;22.20;99.90
15481;DHT22;7842;50.904;6.670;2023-06-22T02:47:03;22.20;99.90
15481;DHT22;7842;50.904;6.670;2023-06-22T02:49:29;22.20;99.90
15481;DHT22;7842;50.904;6.670;2023-06-22T02:51:55;22.20;99.90
15481;DHT22;7842;50.904;6.670;2023-06-22T02:54:20;22.10;99.90
15481;DHT22;7842;50.904;6.670;2023-06-22T02:56:46;22.10;99.90
15481;DHT22;7842;50.904;6.670;2023-06-22T02:59:14;22.10;99.90
15481;DHT22;7842;50.904;6.670;2023-06-22T03:01:39;22.10;99.90
15481;DHT22;7842;50.904;6.670;2023-06-22T03:04:09;22.10;99.90
15481;DHT22;7842;50.904;6.670;2023-06-22T03:06:35;22.10;99.90
15481;DHT22;7842;50.904;6.670;2023-06-22T03:09:03;22.00;99.90
15481;DHT22;7842;50.904;6.670;2023-06-22T03:11:35;22.10;99.90
15481;DHT22;7842;50.904;6.670;2023-06-22T03:14:01;22.10;99.90
15481;DHT22;7842;50.904;6.670;2023-06-22T03:16:27;22.30;99.90
15481;DHT22;7842;50.904;6.670;2023-06-22T03:18:53;22.00;99.90
15481;DHT22;7842;50.904;6.670;2023-06-22T03:21:22;22.10;99.90
15481;DHT22;7842;50.904;6.670;2023-06-22T03:23:48;22.10;99.90
15481;DHT22;7842;50.904;6.670;2023-06-22T03:26:17;22.20;99.90
15481;DHT22;7842;50.904;6.670;2023-06-22T03:28:43;22.30;99.90
15481;DHT22;7842;50.904;6.670;2023-06-22T03:31:08;22.20;99.90
15481;DHT22;7842;50.904;6.670;2023-06-22T03:33:34;22.00;99.90
15481;DHT22;7842;50.904;6.670;2023-06-22T03:35:59;22.00;99.90
15481;DHT22;7842;50.904;6.670;2023-06-22T03:38:25;22.00;99.90
15481;DHT22;7842;50.904;6.670;2023-06-22T03:40:51;22.10;99.90
15481;DHT22;7842;50.904;6.670;2023-06-22T03:43:16;22.00;99.90
15481;DHT22;7842;50.904;6.670;2023-06-22T03:45:42;22.50;99.90
15481;DHT22;7842;50.904;6.670;2023-06-22T03:48:11;22.00;99.90
15481;DHT22;7842;50.904;6.670;2023-06-22T03:50:36;21.90;99.90
15481;DHT22;7842;50.904;6.670;2023-06-22T03:53:02;21.90;99.90
15481;DHT22;7842;50.904;6.670;2023-06-22T03:55:27;22.00;99.90
15481;DHT22;7842;50.904;6.670;2023-06-22T03:57:53;22.10;99.90
15481;DHT22;7842;50.904;6.670;2023-06-22T04:00:22;22.00;99.90
15481;DHT22;7842;50.904;6.670;2023-06-22T04:02:48;22.00;99.90
15481;DHT22;7842;50.904;6.670;2023-06-22T04:05:14;21.90;99.90
15481;DHT22;7842;50.904;6.670;2023-06-22T04:07:39;21.80;99.90
15481;DHT22;7842;50.904;6.670;2023-06-22T04:37:10;21.80;99.90
15481;DHT22;7842;50.904;6.670;2023-06-22T04:39:42;21.90;99.90
15481;DHT22;7842;50.904;6.670;2023-06-22T04:44:35;22.10;99.90
15481;DHT22;7842;50.904;6.670;2023-06-22T04:49:34;22.00;99.90
15481;DHT22;7842;50.904;6.670;2023-06-22T04:52:03;21.90;99.90
15481;DHT22;7842;50.904;6.670;2023-06-22T04:54:29;22.00;99.90
15481;DHT22;7842;50.904;6.670;2023-06-22T04:57:02;22.00;99.90
15481;DHT22;7842;50.904;6.670;2023-06-22T04:59:29;22.10;99.90
15481;DHT22;7842;50.904;6.670;2023-06-22T05:19:11;22.20;99.90
15481;DHT22;7842;50.904;6.670;2023-06-22T05:21:36;22.30;99.90
15481;DHT22;7842;50.904;6.670;2023-06-22T05:24:02;22.20;99.90
15481;DHT22;7842;50.904;6.670;2023-06-22T05:26:32;22.20;99.90
15481;DHT22;7842;50.904;6.670;2023-06-22T05:28:59;22.10;99.90
15481;DHT22;7842;50.904;6.670;2023-06-22T05:31:26;22.20;99.90
15481;DHT22;7842;50.904;6.670;2023-06-22T05:33:52;22.20;99.90
15481;DHT22;7842;50.904;6.670;2023-06-22T05:36:18;22.20;99.90
15481;DHT22;7842;50.904;6.670;2023-06-22T05:38:55;22.50;99.90
15481;DHT22;7842;50.904;6.670;2023-06-22T05:41:21;22.00;99.90
15481;DHT22;7842;50.904;6.670;2023-06-22T05:43:47;22.10;99.90
15481;DHT22;7842;50.904;6.670;2023-06-22T05:46:12;22.10;99.90
15481;DHT22;7842;50.904;6.670;2023-06-22T05:48:38;22.10;99.90
15481;DHT22;7842;50.904;6.670;2023-06-22T06:05:48;22.90;99.90
15481;DHT22;7842;50.904;6.670;2023-06-22T06:08:13;23.80;99.90
15481;DHT22;7842;50.904;6.670;2023-06-22T06:10:39;24.40;99.90
15481;DHT22;7842;50.904;6.670;2023-06-22T06:13:05;24.50;99.90
15481;DHT22;7842;50.904;6.670;2023-06-22T06:15:31;24.80;99.90
15481;DHT22;7842;50.904;6.670;2023-06-22T06:17:57;25.10;99.90
15481;DHT22;7842;50.904;6.670;2023-06-22T06:20:24;24.90;99.90
15481;DHT22;7842;50.904;6.670;2023-06-22T06:22:50;24.60;99.90
15481;DHT22;7842;50.904;6.670;2023-06-22T06:25:16;24.10;99.90
15481;DHT22;7842;50.904;6.670;2023-06-22T06:27:44;23.90;99.90
15481;DHT22;7842;50.904;6.670;2023-06-22T06:30:11;23.60;99.90
15481;DHT22;7842;50.904;6.670;2023-06-22T06:32:37;23.60;99.90
15481;DHT22;7842;50.904;6.670;2023-06-22T06:35:11;23.60;99.90
15481;DHT22;7842;50.904;6.670;2023-06-22T06:37:39;23.60;99.90
15481;DHT22;7842;50.904;6.670;2023-06-22T06:40:09;23.50;99.90
15481;DHT22;7842;50.904;6.670;2023-06-22T06:42:43;23.50;99.90
15481;DHT22;7842;50.904;6.670;2023-06-22T06:45:17;23.50;99.90
15481;DHT22;7842;50.904;6.670;2023-06-22T06:47:43;23.50;99.90
15481;DHT22;7842;50.904;6.670;2023-06-22T06:50:09;23.70;99.90
15481;DHT22;7842;50.904;6.670;2023-06-22T06:52:35;23.70;99.90
15481;DHT22;7842;50.904;6.670;2023-06-22T06:55:01;23.70;99.90
15481;DHT22;7842;50.904;6.670;2023-06-22T06:57:30;23.80;99.90
15481;DHT22;7842;50.904;6.670;2023-06-22T06:59:56;23.90;99.90
15481;DHT22;7842;50.904;6.670;2023-06-22T07:02:22;24.00;99.90
15481;DHT22;7842;50.904;6.670;2023-06-22T07:04:48;24.10;99.90
15481;DHT22;7842;50.904;6.670;2023-06-22T07:07:14;24.20;99.90
15481;DHT22;7842;50.904;6.670;2023-06-22T07:09:40;24.30;99.90
15481;DHT22;7842;50.904;6.670;2023-06-22T07:12:06;24.30;99.90
15481;DHT22;7842;50.904;6.670;2023-06-22T07:14:32;24.60;99.90
15481;DHT22;7842;50.904;6.670;2023-06-22T07:16:58;24.90;99.90
15481;DHT22;7842;50.904;6.670;2023-06-22T07:19:27;25.30;99.90
15481;DHT22;7842;50.904;6.670;2023-06-22T07:21:54;25.30;99.90
15481;DHT22;7842;50.904;6.670;2023-06-22T07:24:23;25.80;99.90
15481;DHT22;7842;50.904;6.670;2023-06-22T07:26:50;26.10;99.90
15481;DHT22;7842;50.904;6.670;2023-06-22T07:29:19;26.00;99.90
15481;DHT22;7842;50.904;6.670;2023-06-22T07:31:48;26.00;99.90
15481;DHT22;7842;50.904;6.670;2023-06-22T07:34:15;25.80;99.90
15481;DHT22;7842;50.904;6.670;2023-06-22T07:36:41;25.90;99.90
15481;DHT22;7842;50.904;6.670;2023-06-22T07:39:06;25.50;99.90
15481;DHT22;7842;50.904;6.670;2023-06-22T07:41:32;25.50;99.90
15481;DHT22;7842;50.904;6.670;2023-06-22T07:43:58;25.40;99.90
15481;DHT22;7842;50.904;6.670;2023-06-22T07:46:23;25.80;99.90
15481;DHT22;7842;50.904;6.670;2023-06-22T07:48:49;26.10;99.90
15481;DHT22;7842;50.904;6.670;2023-06-22T07:51:15;26.20;99.90
15481;DHT22;7842;50.904;6.670;2023-06-22T07:53:42;26.50;99.90
15481;DHT22;7842;50.904;6.670;2023-06-22T07:56:10;26.10;99.90
15481;DHT22;7842;50.904;6.670;2023-06-22T07:58:36;25.70;99.90
15481;DHT22;7842;50.904;6.670;2023-06-22T08:01:01;25.90;99.90
15481;DHT22;7842;50.904;6.670;2023-06-22T08:03:28;25.90;99.90
15481;DHT22;7842;50.904;6.670;2023-06-22T08:05:54;26.20;99.90
15481;DHT22;7842;50.904;6.670;2023-06-22T08:08:19;26.20;99.90
15481;DHT22;7842;50.904;6.670;2023-06-22T08:10:45;26.20;99.90
15481;DHT22;7842;50.904;6.670;2023-06-22T08:13:10;26.40;99.90
15481;DHT22;7842;50.904;6.670;2023-06-22T08:15:36;26.50;99.90
15481;DHT22;7842;50.904;6.670;2023-06-22T08:18:02;26.00;99.90
15481;DHT22;7842;50.904;6.670;2023-06-22T08:20:28;26.30;99.90
15481;DHT22;7842;50.904;6.670;2023-06-22T08:22:55;26.50;99.90
15481;DHT22;7842;50.904;6.670;2023-06-22T08:25:21;26.50;99.90
15481;DHT22;7842;50.904;6.670;2023-06-22T08:27:47;26.40;99.90
15481;DHT22;7842;50.904;6.670;2023-06-22T08:30:14;26.50;99.90
15481;DHT22;7842;50.904;6.670;2023-06-22T08:32:40;26.90;99.90
15481;DHT22;7842;50.904;6.670;2023-06-22T08:35:06;26.80;99.90
15481;DHT22;7842;50.904;6.670;2023-06-22T08:37:34;26.60;99.90
15481;DHT22;7842;50.904;6.670;2023-06-22T08:40:02;26.50;99.90
15481;DHT22;7842;50.904;6.670;2023-06-22T08:42:30;26.70;99.90
15481;DHT22;7842;50.904;6.670;2023-06-22T08:44:57;27.00;99.90
15481;DHT22;7842;50.904;6.670;2023-06-22T08:47:23;27.10;99.90
15481;DHT22;7842;50.904;6.670;2023-06-22T08:49:49;27.40;99.90
15481;DHT22;7842;50.904;6.670;2023-06-22T08:52:14;27.20;99.90
15481;DHT22;7842;50.904;6.670;2023-06-22T08:54:40;26.80;99.90
15481;DHT22;7842;50.904;6.670;2023-06-22T08:57:06;27.30;99.90
15481;DHT22;7842;50.904;6.670;2023-06-22T08:59:32;27.50;99.90
15481;DHT22;7842;50.904;6.670;2023-06-22T09:01:57;27.60;99.90
15481;DHT22;7842;50.904;6.670;2023-06-22T09:04:23;27.50;99.90
15481;DHT22;7842;50.904;6.670;2023-06-22T09:06:49;27.60;99.90
15481;DHT22;7842;50.904;6.670;2023-06-22T09:09:17;28.00;99.90
15481;DHT22;7842;50.904;6.670;2023-06-22T09:11:44;27.90;99.90
15481;DHT22;7842;50.904;6.670;2023-06-22T09:14:10;27.90;99.90
15481;DHT22;7842;50.904;6.670;2023-06-22T09:16:36;27.80;99.90
15481;DHT22;7842;50.904;6.670;2023-06-22T09:19:01;28.00;99.90
15481;DHT22;7842;50.904;6.670;2023-06-22T09:21:27;28.00;99.90
15481;DHT22;7842;50.904;6.670;2023-06-22T09:24:06;27.70;99.90
15481;DHT22;7842;50.904;6.670;2023-06-22T09:26:34;27.70;99.90
15481;DHT22;7842;50.904;6.670;2023-06-22T09:29:00;27.70;99.90
15481;DHT22;7842;50.904;6.670;2023-06-22T09:31:26;27.70;99.90
15481;DHT22;7842;50.904;6.670;2023-06-22T09:33:52;27.70;99.90
15481;DHT22;7842;50.904;6.670;2023-06-22T09:36:18;27.90;99.90
15481;DHT22;7842;50.904;6.670;2023-06-22T09:38:44;28.20;99.90
15481;DHT22;7842;50.904;6.670;2023-06-22T09:41:09;28.10;99.90
15481;DHT22;7842;50.904;6.670;2023-06-22T09:43:38;28.00;99.90
15481;DHT22;7842;50.904;6.670;2023-06-22T09:46:06;28.00;99.90
15481;DHT22;7842;50.904;6.670;2023-06-22T09:48:32;28.50;99.90
15481;DHT22;7842;50.904;6.670;2023-06-22T09:50:58;28.60;99.90
15481;DHT22;7842;50.904;6.670;2023-06-22T09:53:23;28.40;99.90
15481;DHT22;7842;50.904;6.670;2023-06-22T09:55:54;28.60;99.90
15481;DHT22;7842;50.904;6.670;2023-06-22T09:58:28;28.20;99.90
15481;DHT22;7842;50.904;6.670;2023-06-22T10:00:53;28.00;99.90
15481;DHT22;7842;50.904;6.670;2023-06-22T10:03:20;27.80;99.90
15481;DHT22;7842;50.904;6.670;2023-06-22T10:05:45;27.70;99.90
15481;DHT22;7842;50.904;6.670;2023-06-22T10:08:11;27.40;99.90
15481;DHT22;7842;50.904;6.670;2023-06-22T10:10:37;27.30;99.90
15481;DHT22;7842;50.904;6.670;2023-06-22T10:13:11;27.10;99.90
15481;DHT22;7842;50.904;6.670;2023-06-22T10:15:37;27.00;99.90
15481;DHT22;7842;50.904;6.670;2023-06-22T10:18:03;26.80;99.90
15481;DHT22;7842;50.904;6.670;2023-06-22T10:20:28;26.50;99.90
15481;DHT22;7842;50.904;6.670;2023-06-22T10:22:54;26.30;99.90
15481;DHT22;7842;50.904;6.670;2023-06-22T10:25:20;26.20;99.90
15481;DHT22;7842;50.904;6.670;2023-06-22T10:27:45;26.00;99.90
15481;DHT22;7842;50.904;6.670;2023-06-22T10:30:12;25.80;99.90
15481;DHT22;7842;50.904;6.670;2023-06-22T10:32:38;25.70;99.90
15481;DHT22;7842;50.904;6.670;2023-06-22T10:35:05;25.50;99.90
15481;DHT22;7842;50.904;6.670;2023-06-22T10:37:31;25.50;99.90
15481;DHT22;7842;50.904;6.670;2023-06-22T10:44:49;25.10;99.90
15481;DHT22;7842;50.904;6.670;2023-06-22T10:52:10;24.40;99.90
15481;DHT22;7842;50.904;6.670;2023-06-22T10:54:38;24.40;99.90
15481;DHT22;7842;50.904;6.670;2023-06-22T10:57:07;24.30;99.90
15481;DHT22;7842;50.904;6.670;2023-06-22T10:59:33;24.20;99.90
15481;DHT22;7842;50.904;6.670;2023-06-22T11:01:59;24.10;99.90
15481;DHT22;7842;50.904;6.670;2023-06-22T11:04:25;24.00;99.90
15481;DHT22;7842;50.904;6.670;2023-06-22T11:06:53;23.80;99.90
15481;DHT22;7842;50.904;6.670;2023-06-22T11:09:19;23.70;99.90
15481;DHT22;7842;50.904;6.670;2023-06-22T11:11:49;23.60;99.90
15481;DHT22;7842;50.904;6.670;2023-06-22T11:14:14;23.80;99.90
15481;DHT22;7842;50.904;6.670;2023-06-22T11:16:40;23.40;99.90
15481;DHT22;7842;50.904;6.670;2023-06-22T11:19:06;23.50;99.90
15481;DHT22;7842;50.904;6.670;2023-06-22T11:21:32;23.40;99.90
15481;DHT22;7842;50.904;6.670;2023-06-22T11:23:58;23.30;99.90
15481;DHT22;7842;50.904;6.670;2023-06-22T11:26:25;23.20;99.90
15481;DHT22;7842;50.904;6.670;2023-06-22T11:28:53;23.20;99.90
15481;DHT22;7842;50.904;6.670;2023-06-22T11:31:18;23.20;99.90
15481;DHT22;7842;50.904;6.670;2023-06-22T11:33:44;23.30;99.90
15481;DHT22;7842;50.904;6.670;2023-06-22T11:36:11;23.80;99.90
15481;DHT22;7842;50.904;6.670;2023-06-22T11:38:37;23.50;99.90
15481;DHT22;7842;50.904;6.670;2023-06-22T11:41:05;23.50;99.90
15481;DHT22;7842;50.904;6.670;2023-06-22T11:43:31;23.70;99.90
15481;DHT22;7842;50.904;6.670;2023-06-22T11:45:57;23.60;99.90
15481;DHT22;7842;50.904;6.670;2023-06-22T11:48:24;23.80;99.90
15481;DHT22;7842;50.904;6.670;2023-06-22T11:50:50;23.50;99.90
15481;DHT22;7842;50.904;6.670;2023-06-22T11:53:20;23.70;99.90
15481;DHT22;7842;50.904;6.670;2023-06-22T11:55:54;23.80;99.90
15481;DHT22;7842;50.904;6.670;2023-06-22T11:58:21;23.70;99.90
15481;DHT22;7842;50.904;6.670;2023-06-22T12:00:47;23.80;99.90
15481;DHT22;7842;50.904;6.670;2023-06-22T12:03:13;23.90;99.90
15481;DHT22;7842;50.904;6.670;2023-06-22T12:05:40;24.00;99.90
15481;DHT22;7842;50.904;6.670;2023-06-22T12:08:06;23.90;99.90
15481;DHT22;7842;50.904;6.670;2023-06-22T12:10:32;23.90;99.90
15481;DHT22;7842;50.904;6.670;2023-06-22T12:13:00;23.90;99.90
15481;DHT22;7842;50.904;6.670;2023-06-22T12:15:27;23.90;99.90
15481;DHT22;7842;50.904;6.670;2023-06-22T12:17:55;23.80;99.90
15481;DHT22;7842;50.904;6.670;2023-06-22T12:20:21;23.80;99.90
15481;DHT22;7842;50.904;6.670;2023-06-22T12:22:47;23.90;99.90
15481;DHT22;7842;50.904;6.670;2023-06-22T12:25:13;23.80;99.90
15481;DHT22;7842;50.904;6.670;2023-06-22T12:27:39;23.90;99.90
15481;DHT22;7842;50.904;6.670;2023-06-22T12:30:05;23.90;99.90
15481;DHT22;7842;50.904;6.670;2023-06-22T12:32:30;24.10;99.90
15481;DHT22;7842;50.904;6.670;2023-06-22T12:34:56;24.20;99.90
15481;DHT22;7842;50.904;6.670;2023-06-22T12:37:24;24.20;99.90
15481;DHT22;7842;50.904;6.670;2023-06-22T12:39:50;24.10;99.90
15481;DHT22;7842;50.904;6.670;2023-06-22T12:42:16;24.00;99.90
15481;DHT22;7842;50.904;6.670;2023-06-22T12:44:42;23.90;99.90
15481;DHT22;7842;50.904;6.670;2023-06-22T12:47:08;23.80;99.90
15481;DHT22;7842;50.904;6.670;2023-06-22T12:49:37;23.70;99.90
15481;DHT22;7842;50.904;6.670;2023-06-22T12:52:03;23.90;99.90
15481;DHT22;7842;50.904;6.670;2023-06-22T12:54:29;24.20;99.90
15481;DHT22;7842;50.904;6.670;2023-06-22T12:56:55;24.20;99.90
15481;DHT22;7842;50.904;6.670;2023-06-22T12:59:21;24.20;99.90
15481;DHT22;7842;50.904;6.670;2023-06-22T13:01:47;24.30;99.90
15481;DHT22;7842;50.904;6.670;2023-06-22T13:04:12;24.30;99.90
15481;DHT22;7842;50.904;6.670;2023-06-22T13:06:41;24.30;99.90
15481;DHT22;7842;50.904;6.670;2023-06-22T13:09:07;24.40;99.90
15481;DHT22;7842;50.904;6.670;2023-06-22T13:11:33;24.30;99.90
15481;DHT22;7842;50.904;6.670;2023-06-22T13:13:59;24.30;99.90
15481;DHT22;7842;50.904;6.670;2023-06-22T13:16:25;24.30;99.90
15481;DHT22;7842;50.904;6.670;2023-06-22T13:18:50;24.30;99.90
15481;DHT22;7842;50.904;6.670;2023-06-22T13:21:16;24.40;99.90
15481;DHT22;7842;50.904;6.670;2023-06-22T13:23:41;24.20;99.90
15481;DHT22;7842;50.904;6.670;2023-06-22T13:26:07;24.30;99.90
15481;DHT22;7842;50.904;6.670;2023-06-22T13:28:33;24.20;99.90
15481;DHT22;7842;50.904;6.670;2023-06-22T13:30:59;24.40;99.90
15481;DHT22;7842;50.904;6.670;2023-06-22T13:33:24;24.20;99.90
15481;DHT22;7842;50.904;6.670;2023-06-22T13:35:50;24.30;99.90
15481;DHT22;7842;50.904;6.670;2023-06-22T13:38:16;24.30;99.90
15481;DHT22;7842;50.904;6.670;2023-06-22T13:40:42;24.60;99.90
15481;DHT22;7842;50.904;6.670;2023-06-22T13:43:08;24.70;99.90
15481;DHT22;7842;50.904;6.670;2023-06-22T13:45:34;24.90;99.90
15481;DHT22;7842;50.904;6.670;2023-06-22T13:48:00;25.00;99.90
15481;DHT22;7842;50.904;6.670;2023-06-22T13:50:26;25.10;99.90
15481;DHT22;7842;50.904;6.670;2023-06-22T13:52:51;25.10;99.90
15481;DHT22;7842;50.904;6.670;2023-06-22T13:55:17;25.40;99.90
15481;DHT22;7842;50.904;6.670;2023-06-22T13:57:46;25.40;99.90
15481;DHT22;7842;50.904;6.670;2023-06-22T14:00:12;25.40;99.90
15481;DHT22;7842;50.904;6.670;2023-06-22T14:02:38;25.20;99.90
15481;DHT22;7842;50.904;6.670;2023-06-22T14:05:05;25.00;99.90
15481;DHT22;7842;50.904;6.670;2023-06-22T14:07:31;25.00;99.90
15481;DHT22;7842;50.904;6.670;2023-06-22T14:09:57;25.00;99.90
15481;DHT22;7842;50.904;6.670;2023-06-22T14:12:23;24.80;99.90
15481;DHT22;7842;50.904;6.670;2023-06-22T14:14:49;24.80;99.90
15481;DHT22;7842;50.904;6.670;2023-06-22T14:17:15;24.60;99.90
15481;DHT22;7842;50.904;6.670;2023-06-22T14:19:40;24.80;99.90
15481;DHT22;7842;50.904;6.670;2023-06-22T14:22:06;25.00;99.90
15481;DHT22;7842;50.904;6.670;2023-06-22T14:24:32;24.90;99.90
15481;DHT22;7842;50.904;6.670;2023-06-22T14:26:57;24.90;99.90
15481;DHT22;7842;50.904;6.670;2023-06-22T14:29:23;24.80;99.90
15481;DHT22;7842;50.904;6.670;2023-06-22T14:31:49;24.60;99.90
15481;DHT22;7842;50.904;6.670;2023-06-22T14:34:15;24.60;99.90
15481;DHT22;7842;50.904;6.670;2023-06-22T14:36:42;24.60;99.90
15481;DHT22;7842;50.904;6.670;2023-06-22T14:39:08;24.60;99.90
15481;DHT22;7842;50.904;6.670;2023-06-22T14:41:34;24.70;99.90
15481;DHT22;7842;50.904;6.670;2023-06-22T14:44:00;24.70;99.90
15481;DHT22;7842;50.904;6.670;2023-06-22T14:46:25;24.80;99.90
15481;DHT22;7842;50.904;6.670;2023-06-22T14:48:51;24.70;99.90
15481;DHT22;7842;50.904;6.670;2023-06-22T14:51:16;24.80;99.90
15481;DHT22;7842;50.904;6.670;2023-06-22T14:53:43;24.80;99.90
15481;DHT22;7842;50.904;6.670;2023-06-22T14:56:09;24.80;99.90
15481;DHT22;7842;50.904;6.670;2023-06-22T14:58:35;24.60;99.90
15481;DHT22;7842;50.904;6.670;2023-06-22T15:01:04;24.50;99.90
15481;DHT22;7842;50.904;6.670;2023-06-22T15:03:31;24.60;99.90
15481;DHT22;7842;50.904;6.670;2023-06-22T15:05:58;24.60;99.90
15481;DHT22;7842;50.904;6.670;2023-06-22T15:08:24;24.60;99.90
15481;DHT22;7842;50.904;6.670;2023-06-22T15:10:50;24.50;99.90
15481;DHT22;7842;50.904;6.670;2023-06-22T15:13:16;24.30;99.90
15481;DHT22;7842;50.904;6.670;2023-06-22T15:15:43;24.30;99.90
15481;DHT22;7842;50.904;6.670;2023-06-22T15:18:08;24.30;99.90
15481;DHT22;7842;50.904;6.670;2023-06-22T15:20:34;24.20;99.90
15481;DHT22;7842;50.904;6.670;2023-06-22T15:23:00;24.20;99.90
15481;DHT22;7842;50.904;6.670;2023-06-22T15:25:25;24.10;99.90
15481;DHT22;7842;50.904;6.670;2023-06-22T15:27:51;23.90;99.90
15481;DHT22;7842;50.904;6.670;2023-06-22T15:30:17;23.70;99.90
15481;DHT22;7842;50.904;6.670;2023-06-22T15:32:43;23.50;99.90
15481;DHT22;7842;50.904;6.670;2023-06-22T15:35:10;23.30;99.90
15481;DHT22;7842;50.904;6.670;2023-06-22T15:37:36;23.10;99.90
15481;DHT22;7842;50.904;6.670;2023-06-22T15:40:02;23.00;99.90
15481;DHT22;7842;50.904;6.670;2023-06-22T15:42:28;22.80;99.90
15481;DHT22;7842;50.904;6.670;2023-06-22T15:44:54;22.80;99.90
15481;DHT22;7842;50.904;6.670;2023-06-22T15:47:19;22.60;99.90
15481;DHT22;7842;50.904;6.670;2023-06-22T15:49:50;22.60;99.90
15481;DHT22;7842;50.904;6.670;2023-06-22T15:52:17;22.40;99.90
15481;DHT22;7842;50.904;6.670;2023-06-22T15:54:44;22.30;99.90
15481;DHT22;7842;50.904;6.670;2023-06-22T15:57:10;22.30;99.90
15481;DHT22;7842;50.904;6.670;2023-06-22T15:59:42;22.10;99.90
15481;DHT22;7842;50.904;6.670;2023-06-22T16:02:09;22.10;99.90
15481;DHT22;7842;50.904;6.670;2023-06-22T16:04:35;22.00;99.90
15481;DHT22;7842;50.904;6.670;2023-06-22T16:07:01;22.10;99.90
15481;DHT22;7842;50.904;6.670;2023-06-22T16:09:27;22.00;99.90
15481;DHT22;7842;50.904;6.670;2023-06-22T16:11:54;22.00;99.90
15481;DHT22;7842;50.904;6.670;2023-06-22T16:14:20;21.90;99.90
15481;DHT22;7842;50.904;6.670;2023-06-22T16:16:46;21.80;99.90
15481;DHT22;7842;50.904;6.670;2023-06-22T16:19:12;21.80;99.90
15481;DHT22;7842;50.904;6.670;2023-06-22T16:21:38;21.80;99.90
15481;DHT22;7842;50.904;6.670;2023-06-22T16:24:03;21.80;99.90
15481;DHT22;7842;50.904;6.670;2023-06-22T16:26:38;21.80;99.90
15481;DHT22;7842;50.904;6.670;2023-06-22T16:29:05;21.70;99.90
15481;DHT22;7842;50.904;6.670;2023-06-22T16:31:31;21.70;99.90
15481;DHT22;7842;50.904;6.670;2023-06-22T16:33:57;21.60;99.90
15481;DHT22;7842;50.904;6.670;2023-06-22T16:36:23;21.50;99.90
15481;DHT22;7842;50.904;6.670;2023-06-22T16:38:49;21.50;99.90
15481;DHT22;7842;50.904;6.670;2023-06-22T16:41:17;21.40;99.90
15481;DHT22;7842;50.904;6.670;2023-06-22T16:43:43;21.30;99.90
15481;DHT22;7842;50.904;6.670;2023-06-22T16:46:09;21.40;99.90
15481;DHT22;7842;50.904;6.670;2023-06-22T16:48:38;21.40;99.90
15481;DHT22;7842;50.904;6.670;2023-06-22T16:51:04;21.40;99.90
15481;DHT22;7842;50.904;6.670;2023-06-22T16:53:30;21.40;99.90
15481;DHT22;7842;50.904;6.670;2023-06-22T16:55:57;21.40;99.90
15481;DHT22;7842;50.904;6.670;2023-06-22T16:58:24;21.50;99.90
15481;DHT22;7842;50.904;6.670;2023-06-22T17:00:56;21.40;99.90
15481;DHT22;7842;50.904;6.670;2023-06-22T17:03:29;21.50;99.90
15481;DHT22;7842;50.904;6.670;2023-06-22T17:05:58;21.50;99.90